sensor_id;sensor_type;location;lat;lon;timestamp;temperature;humidity
7512;DHT22;9999;48.780;9.146;2023-06-26T00:00:18;21.60;86.40
7512;DHT22;9999;48.780;9.146;2023-06-26T00:02:45;21.60;89.80
7512;DHT22;9999;48.780;9.146;2023-06-26T00:05:12;21.60;86.70
7512;DHT22;9999;48.780;9.146;2023-06-26T00:07:39;21.60;90.50
7512;DHT22;9999;48.780;9.146;2023-06-26T00:10:07;21.60;91.10
7512;DHT22;9999;48.780;9.146;2023-06-26T00:12:35;21.60;91.20
7512;DHT22;9999;48.780;9.146;2023-06-26T00:15:02;21.50;90.60
7512;DHT22;9999;48.780;9.146;2023-06-26T00:17:28;21.40;92.00
7512;DHT22;9999;48.780;9.146;2023-06-26T00:19:55;21.40;92.00
7512;DHT22;9999;48.780;9.146;2023-06-26T00:22:22;21.40;93.10
7512;DHT22;9999;48.780;9.146;2023-06-26T00:24:49;21.40;92.80
7512;DHT22;9999;48.780;9.146;2023-06-26T00:27:17;21.40;92.40
7512;DHT22;9999;48.780;9.146;2023-06-26T00:29:44;21.40;93.50
7512;DHT22;9999;48.780;9.146;2023-06-26T00:32:11;21.30;94.40
7512;DHT22;9999;48.780;9.146;2023-06-26T00:34:38;21.20;94.30
7512;DHT22;9999;48.780;9.146;2023-06-26T00:37:05;21.20;94.70
7512;DHT22;9999;48.780;9.146;2023-06-26T00:39:32;21.30;94.00
7512;DHT22;9999;48.780;9.146;2023-06-26T00:42:00;21.30;94.80
7512;DHT22;9999;48.780;9.146;2023-06-26T00:44:29;21.20;94.60
7512;DHT22;9999;48.780;9.146;2023-06-26T00:46:55;21.20;95.70
7512;DHT22;9999;48.780;9.146;2023-06-26T00:49:23;21.20;96.70
7512;DHT22;9999;48.780;9.146;2023-06-26T00:51:51;21.20;96.10
7512;DHT22;9999;48.780;9.146;2023-06-26T00:54:18;21.10;94.40
7512;DHT22;9999;48.780;9.146;2023-06-26T00:56:48;20.90;96.20
7512;DHT22;9999;48.780;9.146;2023-06-26T00:59:15;20.90;97.20
7512;DHT22;9999;48.780;9.146;2023-06-26T01:01:43;20.80;97.30
7512;DHT22;9999;48.780;9.146;2023-06-26T01:04:11;20.80;97.30
7512;DHT22;9999;48.780;9.146;2023-06-26T01:06:43;20.80;98.10
7512;DHT22;9999;48.780;9.146;2023-06-26T01:09:16;20.80;98.50
7512;DHT22;9999;48.780;9.146;2023-06-26T01:11:43;20.70;97.90
7512;DHT22;9999;48.780;9.146;2023-06-26T01:14:10;20.70;98.30
7512;DHT22;9999;48.780;9.146;2023-06-26T01:16:38;20.70;99.40
7512;DHT22;9999;48.780;9.146;2023-06-26T01:19:10;20.80;99.40
7512;DHT22;9999;48.780;9.146;2023-06-26T01:21:42;20.70;99.50
7512;DHT22;9999;48.780;9.146;2023-06-26T01:24:16;20.80;99.60
7512;DHT22;9999;48.780;9.146;2023-06-26T01:26:51;20.80;99.40
7512;DHT22;9999;48.780;9.146;2023-06-26T01:29:18;20.70;98.40
7512;DHT22;9999;48.780;9.146;2023-06-26T01:31:47;20.70;99.20
7512;DHT22;9999;48.780;9.146;2023-06-26T01:34:16;20.60;99.90
7512;DHT22;9999;48.780;9.146;2023-06-26T01:36:44;20.50;98.80
7512;DHT22;9999;48.780;9.146;2023-06-26T01:39:15;20.50;99.90
7512;DHT22;9999;48.780;9.146;2023-06-26T01:41:43;20.50;99.90
7512;DHT22;9999;48.780;9.146;2023-06-26T01:44:23;20.50;99.20
7512;DHT22;9999;48.780;9.146;2023-06-26T01:46:59;20.60;97.70
7512;DHT22;9999;48.780;9.146;2023-06-26T01:49:33;20.70;98.00
7512;DHT22;9999;48.780;9.146;2023-06-26T01:52:09;20.60;99.90
7512;DHT22;9999;48.780;9.146;2023-06-26T01:54:44;20.60;99.90
7512;DHT22;9999;48.780;9.146;2023-06-26T01:57:13;20.60;99.90
7512;DHT22;9999;48.780;9.146;2023-06-26T01:59:42;20.70;99.90
7512;DHT22;9999;48.780;9.146;2023-06-26T02:02:09;20.70;99.90
7512;DHT22;9999;48.780;9.146;2023-06-26T02:04:37;20.60;99.90
7512;DHT22;9999;48.780;9.146;2023-06-26T02:07:05;20.60;99.90
7512;DHT22;9999;48.780;9.146;2023-06-26T02:09:32;20.60;99.90
7512;DHT22;9999;48.780;9.146;2023-06-26T02:11:58;20.50;99.90
7512;DHT22;9999;48.780;9.146;2023-06-26T02:14:25;20.50;99.90
7512;DHT22;9999;48.780;9.146;2023-06-26T02:16:53;20.50;99.90
7512;DHT22;9999;48.780;9.146;2023-06-26T02:19:20;20.50;99.90
7512;DHT22;9999;48.780;9.146;2023-06-26T02:21:48;20.50;99.90
7512;DHT22;9999;48.780;9.146;2023-06-26T02:24:15;20.50;99.90
7512;DHT22;9999;48.780;9.146;2023-06-26T02:26:42;20.50;99.90
7512;DHT22;9999;48.780;9.146;2023-06-26T02:29:10;20.50;99.90
7512;DHT22;9999;48.780;9.146;2023-06-26T02:31:39;20.50;99.90
7512;DHT22;9999;48.780;9.146;2023-06-26T02:34:07;20.40;99.90
7512;DHT22;9999;48.780;9.146;2023-06-26T02:36:34;20.40;99.90
7512;DHT22;9999;48.780;9.146;2023-06-26T02:39:04;20.40;99.90
7512;DHT22;9999;48.780;9.146;2023-06-26T02:41:32;20.40;99.90
7512;DHT22;9999;48.780;9.146;2023-06-26T02:43:59;20.40;99.90
7512;DHT22;9999;48.780;9.146;2023-06-26T02:46:26;20.40;99.90
7512;DHT22;9999;48.780;9.146;2023-06-26T02:48:54;20.40;99.90
7512;DHT22;9999;48.780;9.146;2023-06-26T02:51:23;20.30;99.90
7512;DHT22;9999;48.780;9.146;2023-06-26T02:53:51;20.30;99.90
7512;DHT22;9999;48.780;9.146;2023-06-26T02:56:17;20.30;99.90
7512;DHT22;9999;48.780;9.146;2023-06-26T02:58:44;20.30;99.90
7512;DHT22;9999;48.780;9.146;2023-06-26T03:01:11;20.20;99.90
7512;DHT22;9999;48.780;9.146;2023-06-26T03:03:41;20.20;99.90
7512;DHT22;9999;48.780;9.146;2023-06-26T03:06:13;20.20;99.90
7512;DHT22;9999;48.780;9.146;2023-06-26T03:08:41;20.20;99.90
7512;DHT22;9999;48.780;9.146;2023-06-26T03:11:09;20.20;99.90
7512;DHT22;9999;48.780;9.146;2023-06-26T03:13:37;20.20;99.90
7512;DHT22;9999;48.780;9.146;2023-06-26T03:16:05;20.20;99.90
7512;DHT22;9999;48.780;9.146;2023-06-26T03:18:32;20.20;99.90
7512;DHT22;9999;48.780;9.146;2023-06-26T03:20:59;20.20;99.90
7512;DHT22;9999;48.780;9.146;2023-06-26T03:23:26;20.20;99.90
7512;DHT22;9999;48.780;9.146;2023-06-26T03:25:54;20.20;99.90
7512;DHT22;9999;48.780;9.146;2023-06-26T03:28:39;20.20;99.90
7512;DHT22;9999;48.780;9.146;2023-06-26T03:31:08;20.20;99.90
7512;DHT22;9999;48.780;9.146;2023-06-26T03:33:35;20.30;99.90
7512;DHT22;9999;48.780;9.146;2023-06-26T03:36:02;20.30;99.90
7512;DHT22;9999;48.780;9.146;2023-06-26T03:38:29;20.30;99.90
7512;DHT22;9999;48.780;9.146;2023-06-26T03:40:59;20.30;99.90
7512;DHT22;9999;48.780;9.146;2023-06-26T03:43:26;20.40;99.90
7512;DHT22;9999;48.780;9.146;2023-06-26T03:46:04;20.40;99.90
7512;DHT22;9999;48.780;9.146;2023-06-26T03:48:34;20.30;99.90
7512;DHT22;9999;48.780;9.146;2023-06-26T03:51:03;20.30;99.90
7512;DHT22;9999;48.780;9.146;2023-06-26T03:53:32;20.30;99.90
7512;DHT22;9999;48.780;9.146;2023-06-26T03:56:00;20.30;99.90
7512;DHT22;9999;48.780;9.146;2023-06-26T03:58:27;20.30;99.90
7512;DHT22;9999;48.780;9.146;2023-06-26T04:00:54;20.30;99.90
7512;DHT22;9999;48.780;9.146;2023-06-26T04:03:22;20.30;99.90
7512;DHT22;9999;48.780;9.146;2023-06-26T04:05:49;20.30;99.90
7512;DHT22;9999;48.780;9.146;2023-06-26T04:08:17;20.30;99.90
7512;DHT22;9999;48.780;9.146;2023-06-26T04:10:45;20.40;99.90
7512;DHT22;9999;48.780;9.146;2023-06-26T04:13:14;20.40;99.90
7512;DHT22;9999;48.780;9.146;2023-06-26T04:15:41;20.40;99.90
7512;DHT22;9999;48.780;9.146;2023-06-26T04:18:09;20.40;99.90
7512;DHT22;9999;48.780;9.146;2023-06-26T04:20:39;20.50;99.80
7512;DHT22;9999;48.780;9.146;2023-06-26T04:23:08;20.40;99.90
7512;DHT22;9999;48.780;9.146;2023-06-26T04:25:35;20.60;99.90
7512;DHT22;9999;48.780;9.146;2023-06-26T04:28:03;20.60;99.90
7512;DHT22;9999;48.780;9.146;2023-06-26T04:30:31;20.60;99.90
7512;DHT22;9999;48.780;9.146;2023-06-26T04:32:58;20.60;99.60
7512;DHT22;9999;48.780;9.146;2023-06-26T04:35:26;20.60;99.90
7512;DHT22;9999;48.780;9.146;2023-06-26T04:37:53;20.60;99.90
7512;DHT22;9999;48.780;9.146;2023-06-26T04:40:20;20.60;99.90
7512;DHT22;9999;48.780;9.146;2023-06-26T04:42:47;20.60;99.90
7512;DHT22;9999;48.780;9.146;2023-06-26T04:45:14;20.60;99.90
7512;DHT22;9999;48.780;9.146;2023-06-26T04:47:42;20.60;99.90
7512;DHT22;9999;48.780;9.146;2023-06-26T04:50:09;20.60;99.90
7512;DHT22;9999;48.780;9.146;2023-06-26T04:52:35;20.70;99.90
7512;DHT22;9999;48.780;9.146;2023-06-26T04:55:03;20.70;99.90
7512;DHT22;9999;48.780;9.146;2023-06-26T04:57:30;20.70;99.90
7512;DHT22;9999;48.780;9.146;2023-06-26T04:59:57;20.70;99.90
7512;DHT22;9999;48.780;9.146;2023-06-26T05:02:23;20.70;99.90
7512;DHT22;9999;48.780;9.146;2023-06-26T05:04:53;20.80;99.90
7512;DHT22;9999;48.780;9.146;2023-06-26T05:07:20;20.70;99.90
7512;DHT22;9999;48.780;9.146;2023-06-26T05:09:47;20.70;99.90
7512;DHT22;9999;48.780;9.146;2023-06-26T05:12:14;20.80;99.90
7512;DHT22;9999;48.780;9.146;2023-06-26T05:14:41;20.80;99.90
7512;DHT22;9999;48.780;9.146;2023-06-26T05:17:07;20.90;99.90
7512;DHT22;9999;48.780;9.146;2023-06-26T05:19:34;20.90;99.90
7512;DHT22;9999;48.780;9.146;2023-06-26T05:22:03;20.80;99.90
7512;DHT22;9999;48.780;9.146;2023-06-26T05:24:34;20.90;99.90
7512;DHT22;9999;48.780;9.146;2023-06-26T05:27:02;21.00;99.90
7512;DHT22;9999;48.780;9.146;2023-06-26T05:29:30;21.00;99.90
7512;DHT22;9999;48.780;9.146;2023-06-26T05:31:58;21.00;99.90
7512;DHT22;9999;48.780;9.146;2023-06-26T05:34:26;20.90;99.90
7512;DHT22;9999;48.780;9.146;2023-06-26T05:36:55;20.90;99.90
7512;DHT22;9999;48.780;9.146;2023-06-26T05:39:26;20.90;99.90
7512;DHT22;9999;48.780;9.146;2023-06-26T05:41:53;21.00;99.90
7512;DHT22;9999;48.780;9.146;2023-06-26T05:44:21;21.10;99.90
7512;DHT22;9999;48.780;9.146;2023-06-26T05:46:47;21.00;99.90
7512;DHT22;9999;48.780;9.146;2023-06-26T05:49:14;21.10;99.90
7512;DHT22;9999;48.780;9.146;2023-06-26T05:51:45;21.20;99.90
7512;DHT22;9999;48.780;9.146;2023-06-26T05:54:12;21.30;99.90
7512;DHT22;9999;48.780;9.146;2023-06-26T05:56:41;21.40;99.90
7512;DHT22;9999;48.780;9.146;2023-06-26T05:59:08;21.60;99.90
7512;DHT22;9999;48.780;9.146;2023-06-26T06:01:37;21.60;99.90
7512;DHT22;9999;48.780;9.146;2023-06-26T06:04:04;21.70;99.90
7512;DHT22;9999;48.780;9.146;2023-06-26T06:06:31;21.80;99.90
7512;DHT22;9999;48.780;9.146;2023-06-26T06:08:57;22.00;99.90
7512;DHT22;9999;48.780;9.146;2023-06-26T06:11:24;22.10;99.90
7512;DHT22;9999;48.780;9.146;2023-06-26T06:13:52;22.20;99.90
7512;DHT22;9999;48.780;9.146;2023-06-26T06:16:19;22.30;99.90
7512;DHT22;9999;48.780;9.146;2023-06-26T06:18:46;22.50;99.90
7512;DHT22;9999;48.780;9.146;2023-06-26T06:21:13;22.60;99.90
7512;DHT22;9999;48.780;9.146;2023-06-26T06:23:40;22.80;99.90
7512;DHT22;9999;48.780;9.146;2023-06-26T06:26:07;22.90;99.90
7512;DHT22;9999;48.780;9.146;2023-06-26T06:28:34;23.10;99.90
7512;DHT22;9999;48.780;9.146;2023-06-26T06:31:02;23.30;99.90
7512;DHT22;9999;48.780;9.146;2023-06-26T06:33:29;23.30;99.90
7512;DHT22;9999;48.780;9.146;2023-06-26T06:35:55;23.50;99.90
7512;DHT22;9999;48.780;9.146;2023-06-26T06:38:22;23.60;99.90
7512;DHT22;9999;48.780;9.146;2023-06-26T06:40:53;23.80;98.50
7512;DHT22;9999;48.780;9.146;2023-06-26T06:43:20;24.00;98.70
7512;DHT22;9999;48.780;9.146;2023-06-26T06:45:47;24.20;97.60
7512;DHT22;9999;48.780;9.146;2023-06-26T06:48:15;24.40;98.30
7512;DHT22;9999;48.780;9.146;2023-06-26T06:50:42;24.60;97.00
7512;DHT22;9999;48.780;9.146;2023-06-26T06:53:09;24.60;95.70
7512;DHT22;9999;48.780;9.146;2023-06-26T06:55:36;24.70;97.70
7512;DHT22;9999;48.780;9.146;2023-06-26T06:58:03;25.00;98.30
7512;DHT22;9999;48.780;9.146;2023-06-26T07:00:30;25.10;96.60
7512;DHT22;9999;48.780;9.146;2023-06-26T07:02:57;25.40;95.50
7512;DHT22;9999;48.780;9.146;2023-06-26T07:05:27;25.60;93.70
7512;DHT22;9999;48.780;9.146;2023-06-26T07:07:54;25.90;93.70
7512;DHT22;9999;48.780;9.146;2023-06-26T07:10:21;26.00;92.40
7512;DHT22;9999;48.780;9.146;2023-06-26T07:12:48;26.20;91.00
7512;DHT22;9999;48.780;9.146;2023-06-26T07:15:15;26.30;91.20
7512;DHT22;9999;48.780;9.146;2023-06-26T07:17:41;26.60;90.40
7512;DHT22;9999;48.780;9.146;2023-06-26T07:20:10;27.00;89.90
7512;DHT22;9999;48.780;9.146;2023-06-26T07:22:43;27.00;88.60
7512;DHT22;9999;48.780;9.146;2023-06-26T07:25:11;27.40;89.70
7512;DHT22;9999;48.780;9.146;2023-06-26T07:27:38;27.70;86.50
7512;DHT22;9999;48.780;9.146;2023-06-26T07:30:06;27.80;89.60
7512;DHT22;9999;48.780;9.146;2023-06-26T07:32:34;27.80;85.10
7512;DHT22;9999;48.780;9.146;2023-06-26T07:35:01;28.10;85.70
7512;DHT22;9999;48.780;9.146;2023-06-26T07:37:28;28.20;84.50
7512;DHT22;9999;48.780;9.146;2023-06-26T07:39:56;28.30;83.40
7512;DHT22;9999;48.780;9.146;2023-06-26T07:42:23;28.30;87.40
7512;DHT22;9999;48.780;9.146;2023-06-26T07:44:50;28.40;82.90
7512;DHT22;9999;48.780;9.146;2023-06-26T07:47:17;28.50;89.00
7512;DHT22;9999;48.780;9.146;2023-06-26T07:49:44;28.80;85.90
7512;DHT22;9999;48.780;9.146;2023-06-26T07:52:11;29.30;81.10
7512;DHT22;9999;48.780;9.146;2023-06-26T07:54:40;29.40;76.90
7512;DHT22;9999;48.780;9.146;2023-06-26T07:57:08;29.60;77.10
7512;DHT22;9999;48.780;9.146;2023-06-26T07:59:37;29.80;75.50
7512;DHT22;9999;48.780;9.146;2023-06-26T08:02:05;30.10;74.40
7512;DHT22;9999;48.780;9.146;2023-06-26T08:04:32;30.10;71.10
7512;DHT22;9999;48.780;9.146;2023-06-26T08:07:00;30.10;71.20
7512;DHT22;9999;48.780;9.146;2023-06-26T08:09:28;30.20;70.70
7512;DHT22;9999;48.780;9.146;2023-06-26T08:11:56;30.20;71.80
7512;DHT22;9999;48.780;9.146;2023-06-26T08:14:25;30.20;70.90
7512;DHT22;9999;48.780;9.146;2023-06-26T08:16:52;30.40;67.20
7512;DHT22;9999;48.780;9.146;2023-06-26T08:19:19;30.40;67.60
7512;DHT22;9999;48.780;9.146;2023-06-26T08:21:47;30.60;69.80
7512;DHT22;9999;48.780;9.146;2023-06-26T08:24:14;30.70;68.50
7512;DHT22;9999;48.780;9.146;2023-06-26T08:26:44;30.50;65.00
7512;DHT22;9999;48.780;9.146;2023-06-26T08:29:11;30.40;65.80
7512;DHT22;9999;48.780;9.146;2023-06-26T08:31:39;30.60;66.70
7512;DHT22;9999;48.780;9.146;2023-06-26T08:34:07;30.80;64.70
7512;DHT22;9999;48.780;9.146;2023-06-26T08:36:35;31.00;65.90
7512;DHT22;9999;48.780;9.146;2023-06-26T08:39:02;31.50;65.50
7512;DHT22;9999;48.780;9.146;2023-06-26T08:41:30;31.60;64.60
7512;DHT22;9999;48.780;9.146;2023-06-26T08:43:57;31.60;63.50
7512;DHT22;9999;48.780;9.146;2023-06-26T08:46:25;31.80;61.80
7512;DHT22;9999;48.780;9.146;2023-06-26T08:48:55;31.50;60.90
7512;DHT22;9999;48.780;9.146;2023-06-26T08:51:24;31.00;60.90
7512;DHT22;9999;48.780;9.146;2023-06-26T08:53:56;31.20;63.30
7512;DHT22;9999;48.780;9.146;2023-06-26T08:56:25;31.30;64.40
7512;DHT22;9999;48.780;9.146;2023-06-26T08:58:52;31.40;62.50
7512;DHT22;9999;48.780;9.146;2023-06-26T09:01:20;31.60;61.40
7512;DHT22;9999;48.780;9.146;2023-06-26T09:03:48;31.80;62.30
7512;DHT22;9999;48.780;9.146;2023-06-26T09:06:17;31.80;62.80
7512;DHT22;9999;48.780;9.146;2023-06-26T09:08:44;31.70;60.00
7512;DHT22;9999;48.780;9.146;2023-06-26T09:11:11;31.80;62.80
7512;DHT22;9999;48.780;9.146;2023-06-26T09:13:39;31.80;62.30
7512;DHT22;9999;48.780;9.146;2023-06-26T09:16:06;31.80;61.80
7512;DHT22;9999;48.780;9.146;2023-06-26T09:18:34;31.50;59.80
7512;DHT22;9999;48.780;9.146;2023-06-26T09:21:06;31.40;61.60
7512;DHT22;9999;48.780;9.146;2023-06-26T09:23:35;31.60;60.30
7512;DHT22;9999;48.780;9.146;2023-06-26T09:26:02;31.90;61.00
7512;DHT22;9999;48.780;9.146;2023-06-26T09:28:31;31.90;60.50
7512;DHT22;9999;48.780;9.146;2023-06-26T09:31:01;32.00;59.80
7512;DHT22;9999;48.780;9.146;2023-06-26T09:33:33;32.00;60.80
7512;DHT22;9999;48.780;9.146;2023-06-26T09:36:01;31.80;61.10
7512;DHT22;9999;48.780;9.146;2023-06-26T09:38:28;31.80;59.80
7512;DHT22;9999;48.780;9.146;2023-06-26T09:40:57;31.60;61.90
7512;DHT22;9999;48.780;9.146;2023-06-26T09:43:24;31.80;63.40
7512;DHT22;9999;48.780;9.146;2023-06-26T09:45:51;32.00;58.00
7512;DHT22;9999;48.780;9.146;2023-06-26T09:48:20;31.80;61.40
7512;DHT22;9999;48.780;9.146;2023-06-26T09:50:48;31.80;60.60
7512;DHT22;9999;48.780;9.146;2023-06-26T09:53:15;31.80;59.00
7512;DHT22;9999;48.780;9.146;2023-06-26T09:55:44;32.10;61.20
7512;DHT22;9999;48.780;9.146;2023-06-26T09:58:13;32.30;59.90
7512;DHT22;9999;48.780;9.146;2023-06-26T10:00:43;32.10;60.50
7512;DHT22;9999;48.780;9.146;2023-06-26T10:03:10;31.80;61.40
7512;DHT22;9999;48.780;9.146;2023-06-26T10:05:38;31.40;60.30
7512;DHT22;9999;48.780;9.146;2023-06-26T10:08:05;31.00;62.30
7512;DHT22;9999;48.780;9.146;2023-06-26T10:10:35;31.20;62.70
7512;DHT22;9999;48.780;9.146;2023-06-26T10:13:08;31.50;63.80
7512;DHT22;9999;48.780;9.146;2023-06-26T10:15:40;31.80;61.70
7512;DHT22;9999;48.780;9.146;2023-06-26T10:18:09;32.10;61.60
7512;DHT22;9999;48.780;9.146;2023-06-26T10:20:36;31.80;61.20
7512;DHT22;9999;48.780;9.146;2023-06-26T10:23:05;31.20;61.80
7512;DHT22;9999;48.780;9.146;2023-06-26T10:25:37;30.90;64.00
7512;DHT22;9999;48.780;9.146;2023-06-26T10:28:09;30.60;65.40
7512;DHT22;9999;48.780;9.146;2023-06-26T10:30:38;30.40;64.10
7512;DHT22;9999;48.780;9.146;2023-06-26T10:33:06;30.20;63.60
7512;DHT22;9999;48.780;9.146;2023-06-26T10:35:33;30.10;65.50
7512;DHT22;9999;48.780;9.146;2023-06-26T10:38:01;30.20;64.90
7512;DHT22;9999;48.780;9.146;2023-06-26T10:40:40;30.50;65.60
7512;DHT22;9999;48.780;9.146;2023-06-26T10:43:08;30.70;64.30
7512;DHT22;9999;48.780;9.146;2023-06-26T10:45:36;30.70;61.50
7512;DHT22;9999;48.780;9.146;2023-06-26T10:48:04;30.80;61.40
7512;DHT22;9999;48.780;9.146;2023-06-26T10:50:32;30.90;62.70
7512;DHT22;9999;48.780;9.146;2023-06-26T10:53:11;31.20;63.80
7512;DHT22;9999;48.780;9.146;2023-06-26T10:55:44;31.60;61.90
7512;DHT22;9999;48.780;9.146;2023-06-26T10:58:33;31.60;61.60
7512;DHT22;9999;48.780;9.146;2023-06-26T11:01:20;31.80;62.30
7512;DHT22;9999;48.780;9.146;2023-06-26T11:04:00;31.80;60.40
7512;DHT22;9999;48.780;9.146;2023-06-26T11:06:31;31.70;62.80
7512;DHT22;9999;48.780;9.146;2023-06-26T11:09:01;31.80;60.80
7512;DHT22;9999;48.780;9.146;2023-06-26T11:11:58;32.00;61.40
7512;DHT22;9999;48.780;9.146;2023-06-26T11:14:33;32.10;61.20
7512;DHT22;9999;48.780;9.146;2023-06-26T11:17:05;32.10;61.70
7512;DHT22;9999;48.780;9.146;2023-06-26T11:19:33;32.30;61.40
7512;DHT22;9999;48.780;9.146;2023-06-26T11:22:02;32.40;59.90
7512;DHT22;9999;48.780;9.146;2023-06-26T11:24:31;32.40;60.40
7512;DHT22;9999;48.780;9.146;2023-06-26T11:27:02;32.50;60.30
7512;DHT22;9999;48.780;9.146;2023-06-26T11:29:30;32.40;60.20
7512;DHT22;9999;48.780;9.146;2023-06-26T11:32:02;32.50;60.40
7512;DHT22;9999;48.780;9.146;2023-06-26T11:34:33;32.40;60.10
7512;DHT22;9999;48.780;9.146;2023-06-26T11:37:00;32.20;59.10
7512;DHT22;9999;48.780;9.146;2023-06-26T11:39:30;32.10;63.00
7512;DHT22;9999;48.780;9.146;2023-06-26T11:41:58;32.20;61.40
7512;DHT22;9999;48.780;9.146;2023-06-26T11:44:29;32.30;61.90
7512;DHT22;9999;48.780;9.146;2023-06-26T11:46:57;32.40;63.10
7512;DHT22;9999;48.780;9.146;2023-06-26T11:49:24;32.60;62.80
7512;DHT22;9999;48.780;9.146;2023-06-26T11:51:53;32.80;59.80
7512;DHT22;9999;48.780;9.146;2023-06-26T11:54:24;32.70;59.50
7512;DHT22;9999;48.780;9.146;2023-06-26T11:56:55;32.80;60.00
7512;DHT22;9999;48.780;9.146;2023-06-26T11:59:33;33.00;60.40
7512;DHT22;9999;48.780;9.146;2023-06-26T12:02:04;32.90;61.10
7512;DHT22;9999;48.780;9.146;2023-06-26T12:04:32;32.60;62.80
7512;DHT22;9999;48.780;9.146;2023-06-26T12:07:01;32.60;64.00
7512;DHT22;9999;48.780;9.146;2023-06-26T12:09:29;32.70;62.80
7512;DHT22;9999;48.780;9.146;2023-06-26T12:11:59;32.70;65.90
7512;DHT22;9999;48.780;9.146;2023-06-26T12:14:27;32.60;64.80
7512;DHT22;9999;48.780;9.146;2023-06-26T12:16:54;32.10;66.70
7512;DHT22;9999;48.780;9.146;2023-06-26T12:19:24;32.30;65.00
7512;DHT22;9999;48.780;9.146;2023-06-26T12:21:52;32.20;65.60
7512;DHT22;9999;48.780;9.146;2023-06-26T12:24:23;32.30;66.50
7512;DHT22;9999;48.780;9.146;2023-06-26T12:26:53;32.30;65.00
7512;DHT22;9999;48.780;9.146;2023-06-26T12:29:30;32.50;65.70
7512;DHT22;9999;48.780;9.146;2023-06-26T12:31:58;32.40;65.00
7512;DHT22;9999;48.780;9.146;2023-06-26T12:34:27;32.40;65.60
7512;DHT22;9999;48.780;9.146;2023-06-26T12:37:00;32.40;64.60
7512;DHT22;9999;48.780;9.146;2023-06-26T12:39:29;32.30;65.10
7512;DHT22;9999;48.780;9.146;2023-06-26T12:41:59;31.70;65.20
7512;DHT22;9999;48.780;9.146;2023-06-26T12:44:27;31.80;65.90
7512;DHT22;9999;48.780;9.146;2023-06-26T12:46:56;31.90;66.10
7512;DHT22;9999;48.780;9.146;2023-06-26T12:49:30;31.90;66.40
7512;DHT22;9999;48.780;9.146;2023-06-26T12:51:58;32.30;66.70
7512;DHT22;9999;48.780;9.146;2023-06-26T12:54:25;32.30;65.90
7512;DHT22;9999;48.780;9.146;2023-06-26T12:56:53;32.50;65.40
7512;DHT22;9999;48.780;9.146;2023-06-26T12:59:21;32.40;62.70
7512;DHT22;9999;48.780;9.146;2023-06-26T13:01:48;32.20;65.10
7512;DHT22;9999;48.780;9.146;2023-06-26T13:04:14;32.00;65.40
7512;DHT22;9999;48.780;9.146;2023-06-26T13:06:41;31.90;65.90
7512;DHT22;9999;48.780;9.146;2023-06-26T13:09:08;31.90;66.50
7512;DHT22;9999;48.780;9.146;2023-06-26T13:11:36;32.00;64.70
7512;DHT22;9999;48.780;9.146;2023-06-26T13:14:05;32.10;65.50
7512;DHT22;9999;48.780;9.146;2023-06-26T13:16:31;32.10;66.20
7512;DHT22;9999;48.780;9.146;2023-06-26T13:18:59;32.20;64.60
7512;DHT22;9999;48.780;9.146;2023-06-26T13:21:26;32.10;64.80
7512;DHT22;9999;48.780;9.146;2023-06-26T13:23:53;32.10;63.40
7512;DHT22;9999;48.780;9.146;2023-06-26T13:26:21;31.80;64.10
7512;DHT22;9999;48.780;9.146;2023-06-26T13:28:48;31.50;64.20
7512;DHT22;9999;48.780;9.146;2023-06-26T13:31:16;31.30;63.80
7512;DHT22;9999;48.780;9.146;2023-06-26T13:33:44;31.20;64.60
7512;DHT22;9999;48.780;9.146;2023-06-26T13:36:11;31.50;64.30
7512;DHT22;9999;48.780;9.146;2023-06-26T13:38:39;31.60;64.50
7512;DHT22;9999;48.780;9.146;2023-06-26T13:41:06;31.60;62.40
7512;DHT22;9999;48.780;9.146;2023-06-26T13:43:33;31.40;62.00
7512;DHT22;9999;48.780;9.146;2023-06-26T13:46:00;31.30;62.60
7512;DHT22;9999;48.780;9.146;2023-06-26T13:48:29;31.40;61.60
7512;DHT22;9999;48.780;9.146;2023-06-26T13:50:57;31.30;62.10
7512;DHT22;9999;48.780;9.146;2023-06-26T13:53:24;31.20;61.50
7512;DHT22;9999;48.780;9.146;2023-06-26T13:55:51;31.20;61.20
7512;DHT22;9999;48.780;9.146;2023-06-26T13:58:17;31.20;62.10
7512;DHT22;9999;48.780;9.146;2023-06-26T14:00:48;31.20;60.80
7512;DHT22;9999;48.780;9.146;2023-06-26T14:03:14;31.20;59.20
7512;DHT22;9999;48.780;9.146;2023-06-26T14:05:43;30.90;59.80
7512;DHT22;9999;48.780;9.146;2023-06-26T14:08:10;31.00;58.80
7512;DHT22;9999;48.780;9.146;2023-06-26T14:10:39;30.90;58.80
7512;DHT22;9999;48.780;9.146;2023-06-26T14:13:06;30.80;59.10
7512;DHT22;9999;48.780;9.146;2023-06-26T14:15:34;30.70;60.80
7512;DHT22;9999;48.780;9.146;2023-06-26T14:18:01;30.80;60.90
7512;DHT22;9999;48.780;9.146;2023-06-26T14:20:29;30.70;58.70
7512;DHT22;9999;48.780;9.146;2023-06-26T14:22:59;30.70;57.70
7512;DHT22;9999;48.780;9.146;2023-06-26T14:25:26;30.50;58.70
7512;DHT22;9999;48.780;9.146;2023-06-26T14:27:54;30.60;59.00
7512;DHT22;9999;48.780;9.146;2023-06-26T14:30:21;30.40;58.00
7512;DHT22;9999;48.780;9.146;2023-06-26T14:32:48;30.30;58.90
7512;DHT22;9999;48.780;9.146;2023-06-26T14:35:15;30.30;58.50
7512;DHT22;9999;48.780;9.146;2023-06-26T14:37:42;30.30;59.60
7512;DHT22;9999;48.780;9.146;2023-06-26T14:40:12;30.40;59.20
7512;DHT22;9999;48.780;9.146;2023-06-26T14:42:39;30.60;59.20
7512;DHT22;9999;48.780;9.146;2023-06-26T14:45:09;30.50;57.30
7512;DHT22;9999;48.780;9.146;2023-06-26T14:47:36;30.30;59.10
7512;DHT22;9999;48.780;9.146;2023-06-26T14:50:03;30.20;60.00
7512;DHT22;9999;48.780;9.146;2023-06-26T14:52:30;30.00;59.70
7512;DHT22;9999;48.780;9.146;2023-06-26T14:54:57;30.00;58.00
7512;DHT22;9999;48.780;9.146;2023-06-26T14:57:34;30.20;59.20
7512;DHT22;9999;48.780;9.146;2023-06-26T15:00:01;30.20;60.00
7512;DHT22;9999;48.780;9.146;2023-06-26T15:02:41;30.20;60.60
7512;DHT22;9999;48.780;9.146;2023-06-26T15:05:11;30.10;61.20
7512;DHT22;9999;48.780;9.146;2023-06-26T15:07:39;29.90;60.00
7512;DHT22;9999;48.780;9.146;2023-06-26T15:10:07;29.70;60.90
7512;DHT22;9999;48.780;9.146;2023-06-26T15:12:36;29.40;59.70
7512;DHT22;9999;48.780;9.146;2023-06-26T15:15:04;29.20;61.10
7512;DHT22;9999;48.780;9.146;2023-06-26T15:17:33;29.20;61.50
7512;DHT22;9999;48.780;9.146;2023-06-26T15:20:05;29.40;63.20
7512;DHT22;9999;48.780;9.146;2023-06-26T15:22:38;29.60;62.50
7512;DHT22;9999;48.780;9.146;2023-06-26T15:25:07;29.60;62.10
7512;DHT22;9999;48.780;9.146;2023-06-26T15:27:35;29.30;60.60
7512;DHT22;9999;48.780;9.146;2023-06-26T15:30:02;29.10;61.90
7512;DHT22;9999;48.780;9.146;2023-06-26T15:32:31;28.90;62.50
7512;DHT22;9999;48.780;9.146;2023-06-26T15:34:58;28.90;61.10
7512;DHT22;9999;48.780;9.146;2023-06-26T15:37:25;28.80;60.50
7512;DHT22;9999;48.780;9.146;2023-06-26T15:39:52;28.80;60.50
7512;DHT22;9999;48.780;9.146;2023-06-26T15:42:19;28.90;62.80
7512;DHT22;9999;48.780;9.146;2023-06-26T15:44:47;28.80;61.40
7512;DHT22;9999;48.780;9.146;2023-06-26T15:47:14;28.60;61.90
7512;DHT22;9999;48.780;9.146;2023-06-26T15:49:57;28.50;62.10
7512;DHT22;9999;48.780;9.146;2023-06-26T15:52:24;28.50;60.60
7512;DHT22;9999;48.780;9.146;2023-06-26T15:54:50;28.30;61.10
7512;DHT22;9999;48.780;9.146;2023-06-26T15:57:17;28.20;61.10
7512;DHT22;9999;48.780;9.146;2023-06-26T15:59:44;28.00;62.20
7512;DHT22;9999;48.780;9.146;2023-06-26T16:02:12;27.90;65.10
7512;DHT22;9999;48.780;9.146;2023-06-26T16:04:39;27.80;64.60
7512;DHT22;9999;48.780;9.146;2023-06-26T16:07:06;27.80;63.00
7512;DHT22;9999;48.780;9.146;2023-06-26T16:09:34;27.70;63.60